Terminal Aerodrome Forecast
Issued by NWS

Home | Current Version | Previous Version | Text Only | Print | Product List | Glossary On
Versions: 1 2 3 4 5 6 7 8 9 10 11 12 13 14 15 16 17 18 19 20 21 22
489
FTUS41 KPBZ 190217 AAA
TAFMGW
TAF AMD
KMGW 190217Z 1902/1924 22003KT P6SM OVC015
     FM191400 VRB03KT P6SM BKN025
     FM191600 VRB03KT P6SM SCT150=

USA.gov is the U.S. government's official web portal to all federal, state and local government web resources and services.